Honey Brook, Pennsylvania
Current Conditions -  °F | °C
As of 3:15 AM on Monday 26 Jan 2015 (Local Time) from KMQS Reporting Station
Light Snow Light Snow  
Wind Chill: 17°   Ceiling: 1200
Heat Index: 28°   Visibility: 6mi
Dew Point: 27°   Wind: 14mph
Humidity: 93%   Direction: 70°ENE
Pressure: 29.9"   Gusts: 28mph
Location:  40.09°N, 75.91°W
Report Text: KMQS 260815Z AUTO 07012G24KT 6SM -SN SCT006 OVC012 M02/M03 A2990 RMK AO2
Loading
Personal Weather Stations






























Interactive Weather Map New forecast layout! Learn more

10-Day Weather Forecast

Advertisements
Track Severe Weather on mobile